Sun Valley, ID

8:32 PM MDT on October 01, 2014 (GMT -0600)
RAWS SAWTOOTH PORTABLE #2 ID US | Change Station
CLOSE
Current Station
Personal Weather Station
Location: Sun Valley, ID
Elevation: 7628 ft
Nearby Weather Stations

Elev 7628 ft 43.63 °N, 113.96 °W | Updated 28 minutes ago

Clear
Clear
39 °F
Feels Like 35 °F
N
5
Wind Variable Wind from SSW
Gusts 9.0 mph

Today
High -- | Low -- °F
--% Chance of Precip.
Yesterday
High -- | Low -- °F
Precip. -- in
7:34 AM 7:17 PM
First Quarter, 53% visible
Pressure 30.12 in
Visibility -9999.0 miles
Clouds
Windchill 35 °F
Dew Point 28 °F
Humidity 65%
Rainfall 0.00 in
Snow Depth 0 in , 0 in , 0 in
UV Not available.
Pollen 7.40 out of 12
Air Quality Not available.
Flu Activity Not available.
METAR KSNT 020151Z AUTO 00000KT 03/M03 A3018 RMK AO1 SLP198 T00281028

More Conditions Fewer Conditions

Pressure 30.12 in
Visibility -9999.0 miles
Clouds
Windchill 35 °F
Dew Point 28 °F
Humidity 65%
Rainfall 0.00 in
Snow Depth 0 in , 0 in , 0 in
UV Not available.
Pollen 7.40 out of 12
Air Quality Not available.
Flu Activity Not available.
METAR KSNT 020151Z AUTO 00000KT 03/M03 A3018 RMK AO1 SLP198 T00281028

More Conditions Fewer Conditions

10-Day Weather Forecast

Almanac

Astronomy

Oct. 01, 2014 Rise Set
Actual Time 7:34 AM MDT 7:17 PM MDT
Civil Twilight 7:06 AM MDT 7:46 PM MDT
Nautical Twilight 6:32 AM MDT 8:19 PM MDT
Astronomical Twilight 5:58 AM MDT 8:53 PM MDT
Moon 2:47 PM MDT (10/1) No Moon Set
Length of Visible Light 12h 40m
Length of Day
11h 43m
Tomorrow will be 2m 59s shorter.
First Quarter, 53% of the Moon is Illuminated
Today
First Quarter
Oct 8
Full
Oct 15
Last Quarter
Oct 23
New
Oct 30
First Quarter

Today's Extremes

State Highs State Lows

Community

WunderPhotos

Upload Photos

1,758,147 photos uploaded!

WunderBlogs® & News

Nearby

Snow Depth

Station Depth Elevation
Moscow Mountain 0 in 4700 ft
Swede Peak 0 in 7640 ft
Bogus Basin 0 in 6340 ft
Bear Mountain 1 in 5400 ft
Island Park 0 in 6290 ft

Earthquake Activity

City Distance Mag. Time & Date
No recent earthquake activity has been reported nearby.
Minimum magnitude displayed is 2.5.

Coastal Water Temperatures

Place Temperature
No Stations Reporting

Nearby Weather Stations